Terminal Aerodrome Forecast
Issued by NWS Cleveland, OH

Home | Current Version | Previous Version | Text Only | Print | Product List | Glossary Off
Versions: 1 2 3 4 5 6 7 8 9 10 11 12 13 14 15 16 17 18 19

000
FTUS41 KCLE 161700
TAFYNG
TAF
KYNG 161728Z 1618/1718 13009KT P6SM -SHRA OVC035
      TEMPO 1618/1622 4SM -SHRA OVC025
     FM162200 16008KT P6SM -SHRA OVC025
     FM170600 18010KT P6SM BKN008 OVC014
     FM170900 25008KT P6SM OVC010=

USA.gov is the U.S. government's official web portal to all federal, state and local government web resources and services.